createdAt,value
2019-05-06T00:00:08.066Z,55.60
2019-05-06T00:01:45.457Z,55.50
2019-05-06T00:03:21.891Z,55.40
2019-05-06T00:04:58.485Z,55.30
2019-05-06T00:06:34.789Z,55.30
2019-05-06T00:08:10.362Z,55.20
2019-05-06T00:09:46.120Z,55.30
2019-05-06T00:11:23.847Z,55.30
2019-05-06T00:12:59.678Z,55.40
2019-05-06T00:14:35.202Z,55.50
2019-05-06T00:16:10.788Z,55.50
2019-05-06T00:17:46.299Z,55.70
2019-05-06T00:19:24.497Z,55.70
2019-05-06T00:20:59.484Z,55.70
2019-05-06T00:22:34.987Z,55.70
2019-05-06T00:24:10.569Z,55.70
2019-05-06T00:26:04.131Z,55.60
2019-05-06T00:27:57.585Z,55.70
2019-05-06T00:29:34.935Z,55.70
2019-05-06T00:31:15.931Z,55.60
2019-05-06T00:32:49.227Z,55.70
2019-05-06T00:34:24.720Z,55.70
2019-05-06T00:36:00.645Z,55.80
2019-05-06T00:37:36.426Z,55.90
2019-05-06T00:39:14.920Z,55.80
2019-05-06T00:41:04.420Z,55.70
2019-05-06T00:42:41.575Z,55.70
2019-05-06T00:44:17.145Z,55.70
2019-05-06T00:45:53.662Z,55.80
2019-05-06T00:47:29.423Z,55.90
2019-05-06T00:49:04.908Z,55.90
2019-05-06T00:50:40.429Z,55.70
2019-05-06T00:52:15.944Z,55.80
2019-05-06T00:53:55.891Z,55.80
2019-05-06T00:55:33.634Z,55.80
2019-05-06T00:57:08.609Z,55.60
2019-05-06T00:58:44.110Z,55.60
2019-05-06T01:00:24.417Z,55.60
2019-05-06T01:02:00.064Z,55.50
2019-05-06T01:03:35.589Z,55.50
2019-05-06T01:05:13.407Z,55.60
2019-05-06T01:06:51.523Z,55.60
2019-05-06T01:08:27.952Z,55.50
2019-05-06T01:10:04.136Z,55.60
2019-05-06T01:11:40.797Z,55.80
2019-05-06T01:13:28.086Z,55.80
2019-05-06T01:15:06.809Z,55.80
2019-05-06T01:16:43.967Z,55.70
2019-05-06T01:18:21.223Z,55.70
2019-05-06T01:19:56.752Z,55.70
2019-05-06T01:21:34.133Z,55.70
2019-05-06T01:23:09.485Z,55.50
2019-05-06T01:24:45.056Z,55.50
2019-05-06T01:26:20.580Z,55.50
2019-05-06T01:27:56.092Z,55.60
2019-05-06T01:29:31.613Z,55.60
2019-05-06T01:31:08.959Z,55.60
2019-05-06T01:32:44.468Z,55.70
2019-05-06T01:34:19.978Z,55.70
2019-05-06T01:35:55.503Z,55.50
2019-05-06T01:37:31.486Z,55.50
2019-05-06T01:39:19.286Z,55.50
2019-05-06T01:40:56.503Z,55.50
2019-05-06T01:42:49.441Z,55.50
2019-05-06T01:44:24.966Z,55.50
2019-05-06T01:46:01.448Z,55.60
2019-05-06T01:47:36.966Z,55.40
2019-05-06T01:49:13.780Z,55.80
2019-05-06T01:50:49.637Z,55.80
2019-05-06T01:52:25.156Z,55.70
2019-05-06T01:54:00.684Z,55.80
2019-05-06T01:55:36.183Z,55.80
2019-05-06T01:57:13.590Z,55.90
2019-05-06T01:58:53.454Z,55.90
2019-05-06T02:00:28.529Z,56.00
2019-05-06T02:02:04.662Z,55.80
2019-05-06T02:03:40.263Z,55.80
2019-05-06T02:05:15.757Z,55.90
2019-05-06T02:06:51.507Z,55.80
2019-05-06T02:08:27.080Z,55.80
2019-05-06T02:10:03.947Z,55.80
2019-05-06T02:11:39.637Z,55.70
2019-05-06T02:13:15.181Z,55.70
2019-05-06T02:14:51.022Z,55.70
2019-05-06T02:16:27.398Z,55.70
2019-05-06T02:18:10.542Z,55.70
2019-05-06T02:19:44.694Z,55.80
2019-05-06T02:21:26.501Z,55.70
2019-05-06T02:23:04.162Z,55.80
2019-05-06T02:24:43.987Z,55.90
2019-05-06T02:26:19.626Z,55.80
2019-05-06T02:27:55.157Z,55.90
2019-05-06T02:29:36.947Z,55.90
2019-05-06T02:31:30.193Z,56.00
2019-05-06T02:33:10.046Z,56.00
2019-05-06T02:34:54.685Z,56.00
2019-05-06T02:36:37.854Z,56.10
2019-05-06T02:38:39.249Z,56.10
2019-05-06T02:40:25.056Z,56.10
2019-05-06T02:41:59.893Z,56.30
2019-05-06T02:43:35.396Z,56.50
2019-05-06T02:45:12.713Z,56.70
2019-05-06T02:46:53.157Z,56.90
2019-05-06T02:48:43.281Z,56.90
2019-05-06T02:50:23.930Z,56.90
2019-05-06T02:52:02.795Z,56.90
2019-05-06T02:53:36.934Z,57.00
2019-05-06T02:55:13.043Z,56.90
2019-05-06T02:56:48.601Z,56.90
2019-05-06T02:58:27.608Z,57.00
2019-05-06T03:00:05.024Z,57.10
2019-05-06T03:01:43.208Z,57.10
2019-05-06T03:03:23.263Z,57.20
2019-05-06T03:04:58.636Z,57.40
2019-05-06T03:06:34.137Z,57.50
2019-05-06T03:08:13.182Z,57.50
2019-05-06T03:09:46.853Z,57.70
2019-05-06T03:11:24.026Z,57.80
2019-05-06T03:12:59.740Z,57.90
2019-05-06T03:14:35.250Z,57.90
2019-05-06T03:16:13.913Z,58.00
2019-05-06T03:17:48.038Z,58.10
2019-05-06T03:19:24.959Z,58.20
2019-05-06T03:21:03.879Z,58.20
2019-05-06T03:22:43.619Z,58.30
2019-05-06T03:24:17.960Z,58.90
2019-05-06T03:25:54.099Z,58.30
2019-05-06T03:27:32.663Z,58.40
2019-05-06T03:29:06.837Z,58.50
2019-05-06T03:30:45.985Z,58.50
2019-05-06T03:32:24.694Z,58.70
2019-05-06T03:34:22.247Z,58.70
2019-05-06T03:35:49.962Z,58.70
2019-05-06T03:37:16.216Z,58.90
2019-05-06T03:38:48.438Z,58.90
2019-05-06T03:40:23.948Z,59.00
2019-05-06T03:41:59.446Z,59.10
2019-05-06T03:43:34.974Z,59.00
2019-05-06T03:45:13.179Z,59.20
2019-05-06T03:47:08.865Z,59.20
2019-05-06T03:48:48.920Z,59.30
2019-05-06T03:50:24.688Z,59.20
2019-05-06T03:52:02.547Z,59.30
2019-05-06T03:53:37.456Z,59.40
2019-05-06T03:55:13.800Z,59.40
2019-05-06T03:56:53.772Z,59.50
2019-05-06T03:58:34.599Z,58.70
2019-05-06T04:00:15.915Z,59.40
2019-05-06T04:01:53.298Z,59.40
2019-05-06T04:03:42.451Z,59.40
2019-05-06T04:05:06.098Z,59.50
2019-05-06T04:06:43.627Z,59.50
2019-05-06T04:08:20.455Z,59.50
2019-05-06T04:09:57.248Z,59.60
2019-05-06T04:11:35.969Z,59.70
2019-05-06T04:13:13.437Z,59.80
2019-05-06T04:14:49.577Z,59.90
2019-05-06T04:16:30.430Z,59.80
2019-05-06T04:18:12.399Z,59.90
2019-05-06T04:19:53.527Z,59.80
2019-05-06T04:21:45.678Z,59.90
2019-05-06T04:23:38.192Z,59.90
2019-05-06T04:25:18.994Z,59.90
2019-05-06T04:27:16.557Z,59.90
2019-05-06T04:28:53.460Z,59.90
2019-05-06T04:30:29.208Z,59.90
2019-05-06T04:32:06.073Z,60.00
2019-05-06T04:33:46.112Z,60.20
2019-05-06T04:35:19.143Z,60.30
2019-05-06T04:36:54.950Z,60.20
2019-05-06T04:38:33.507Z,60.30
2019-05-06T04:40:09.009Z,60.40
2019-05-06T04:41:44.794Z,60.50
2019-05-06T04:43:26.242Z,60.50
2019-05-06T04:44:57.806Z,60.50
2019-05-06T04:46:34.886Z,60.50
2019-05-06T04:48:14.447Z,60.40
2019-05-06T04:49:48.709Z,60.40
2019-05-06T04:51:24.968Z,60.30
2019-05-06T04:53:05.136Z,60.20
2019-05-06T04:54:43.926Z,60.10
2019-05-06T04:56:18.467Z,60.00
2019-05-06T04:57:55.165Z,59.90
2019-05-06T04:59:32.592Z,59.90
2019-05-06T05:01:11.903Z,59.90
2019-05-06T05:02:46.414Z,59.90
2019-05-06T05:04:31.054Z,59.90
2019-05-06T05:06:01.978Z,59.80
2019-05-06T05:07:37.241Z,59.80
2019-05-06T05:09:17.165Z,59.70
2019-05-06T05:10:53.359Z,59.70
2019-05-06T05:12:33.799Z,59.70
2019-05-06T05:14:13.882Z,60.50
2019-05-06T05:15:57.215Z,59.70
2019-05-06T05:17:37.302Z,59.60
2019-05-06T05:19:15.197Z,59.60
2019-05-06T05:20:52.735Z,59.70
2019-05-06T05:22:28.899Z,59.80
2019-05-06T05:24:04.482Z,59.70
2019-05-06T05:25:40.004Z,59.70
2019-05-06T05:27:15.575Z,59.70
2019-05-06T05:28:53.187Z,59.70
2019-05-06T05:30:28.598Z,59.70
2019-05-06T05:32:04.275Z,59.70
2019-05-06T05:33:42.158Z,59.80
2019-05-06T05:35:19.297Z,59.80
2019-05-06T05:38:32.072Z,59.20
2019-05-06T05:40:07.628Z,59.70
2019-05-06T05:41:43.193Z,59.70
2019-05-06T05:43:24.288Z,59.80
2019-05-06T05:45:02.507Z,59.70
2019-05-06T05:46:39.412Z,59.80
2019-05-06T05:48:23.550Z,59.70
2019-05-06T05:50:09.499Z,59.80
2019-05-06T05:51:45.020Z,59.80
2019-05-06T05:53:22.437Z,59.90
2019-05-06T05:54:58.062Z,60.00
2019-05-06T05:56:33.624Z,60.00
2019-05-06T05:58:09.428Z,61.00
2019-05-06T05:59:45.269Z,60.30
2019-05-06T06:01:23.203Z,60.30
2019-05-06T06:02:58.422Z,60.40
2019-05-06T06:04:33.981Z,60.40
2019-05-06T06:06:09.505Z,60.50
2019-05-06T06:07:45.023Z,60.40
2019-05-06T06:09:22.354Z,60.50
2019-05-06T06:11:16.047Z,60.40
2019-05-06T06:12:54.691Z,60.40
2019-05-06T06:14:43.771Z,60.40
2019-05-06T06:16:20.837Z,60.30
2019-05-06T06:18:14.190Z,60.60
2019-05-06T06:19:53.327Z,61.30
2019-05-06T06:21:33.541Z,61.60
2019-05-06T06:23:10.775Z,61.70
2019-05-06T06:24:46.287Z,61.60
2019-05-06T06:26:23.097Z,61.50
2019-05-06T06:27:58.603Z,61.50
2019-05-06T06:29:34.135Z,60.60
2019-05-06T06:31:17.209Z,59.90
2019-05-06T06:32:53.201Z,58.70
2019-05-06T06:34:46.304Z,58.70
2019-05-06T06:36:29.487Z,58.00
2019-05-06T06:38:09.621Z,57.10
2019-05-06T06:39:46.857Z,56.40
2019-05-06T06:41:22.895Z,55.90
2019-05-06T06:43:02.026Z,55.50
2019-05-06T06:44:37.384Z,54.90
2019-05-06T06:46:12.916Z,54.00
2019-05-06T06:47:49.198Z,53.50
2019-05-06T06:49:24.712Z,52.70
2019-05-06T06:51:00.271Z,52.10
2019-05-06T06:52:35.764Z,51.30
2019-05-06T06:54:12.301Z,50.30
2019-05-06T06:55:48.048Z,50.00
2019-05-06T06:57:25.936Z,49.00
2019-05-06T06:59:19.573Z,48.20
2019-05-06T07:01:16.397Z,48.60
2019-05-06T07:02:53.674Z,48.60
2019-05-06T07:04:36.629Z,47.60
2019-05-06T07:06:14.969Z,46.30
2019-05-06T07:07:52.937Z,45.50
2019-05-06T07:09:29.733Z,45.00
2019-05-06T07:11:05.405Z,44.90
2019-05-06T07:12:42.703Z,44.80
2019-05-06T07:14:18.578Z,43.40
2019-05-06T07:15:54.428Z,43.00
2019-05-06T07:17:32.654Z,42.50
2019-05-06T07:19:07.833Z,42.60
2019-05-06T07:20:52.560Z,42.10
2019-05-06T07:22:29.539Z,42.10
2019-05-06T07:24:05.193Z,42.00
2019-05-06T07:25:42.909Z,41.70
2019-05-06T07:27:19.603Z,41.70
2019-05-06T07:28:55.344Z,41.20
2019-05-06T07:30:34.222Z,40.00
2019-05-06T07:32:09.757Z,39.30
2019-05-06T07:33:45.828Z,38.40
2019-05-06T07:35:22.557Z,38.00
2019-05-06T07:36:58.684Z,37.60
2019-05-06T07:38:34.790Z,37.20
2019-05-06T07:40:12.418Z,37.20
2019-05-06T07:41:53.508Z,37.10
2019-05-06T07:43:42.842Z,36.50
2019-05-06T07:45:29.070Z,36.40
2019-05-06T07:47:06.333Z,36.40
2019-05-06T07:48:42.867Z,36.80
2019-05-06T07:50:18.486Z,36.50
2019-05-06T07:51:55.035Z,36.40
2019-05-06T07:53:32.114Z,36.50
2019-05-06T07:55:07.862Z,35.80
2019-05-06T07:56:43.387Z,35.20
2019-05-06T07:58:18.916Z,34.50
2019-05-06T07:59:55.682Z,33.90
2019-05-06T08:01:33.263Z,33.70
2019-05-06T08:03:08.718Z,34.10
2019-05-06T08:04:44.256Z,34.50
2019-05-06T08:06:19.749Z,34.40
2019-05-06T08:07:55.560Z,33.90
2019-05-06T08:09:32.614Z,33.40
2019-05-06T08:11:08.215Z,33.30
2019-05-06T08:12:43.727Z,33.10
2019-05-06T08:14:19.262Z,32.60
2019-05-06T08:15:54.903Z,32.80
2019-05-06T08:17:33.125Z,32.80
2019-05-06T08:19:08.894Z,32.70
2019-05-06T08:20:44.665Z,32.70
2019-05-06T08:22:37.636Z,32.80
2019-05-06T08:24:13.146Z,32.10
2019-05-06T08:25:57.647Z,32.00
2019-05-06T08:27:29.906Z,31.90
2019-05-06T08:29:05.444Z,31.60
2019-05-06T08:30:43.035Z,31.70
2019-05-06T08:32:18.432Z,31.70
2019-05-06T08:33:54.257Z,32.10
2019-05-06T08:35:29.846Z,32.10
2019-05-06T08:37:09.406Z,31.90
2019-05-06T08:38:58.413Z,32.10
2019-05-06T08:40:33.916Z,32.00
2019-05-06T08:42:09.493Z,31.00
2019-05-06T08:43:45.063Z,30.40
2019-05-06T08:45:22.028Z,30.40
2019-05-06T08:46:58.177Z,30.90
2019-05-06T08:48:33.958Z,30.90
2019-05-06T08:50:12.817Z,30.70
2019-05-06T08:51:52.926Z,30.90
2019-05-06T08:53:30.465Z,31.20
2019-05-06T08:55:07.559Z,31.40
2019-05-06T08:56:43.149Z,31.80
2019-05-06T08:58:18.687Z,32.00
2019-05-06T08:59:54.214Z,32.20
2019-05-06T09:01:37.370Z,32.70
2019-05-06T09:03:14.304Z,32.90
2019-05-06T09:04:51.824Z,33.10
2019-05-06T09:06:31.503Z,33.20
2019-05-06T09:08:05.488Z,33.80
2019-05-06T09:09:42.119Z,34.30
2019-05-06T09:11:19.426Z,34.70
2019-05-06T09:12:54.950Z,34.70
2019-05-06T09:14:32.727Z,35.30
2019-05-06T09:16:07.729Z,34.70
2019-05-06T09:17:43.251Z,34.90
2019-05-06T09:19:18.799Z,35.20
2019-05-06T09:20:54.317Z,35.60
2019-05-06T09:22:32.432Z,35.80
2019-05-06T09:24:07.122Z,36.70
2019-05-06T09:25:42.632Z,36.20
2019-05-06T09:27:22.612Z,36.20
2019-05-06T09:29:03.340Z,36.50
2019-05-06T09:30:43.237Z,36.60
2019-05-06T09:32:23.321Z,36.90
2019-05-06T09:34:02.728Z,37.30
2019-05-06T09:35:37.693Z,37.60
2019-05-06T09:37:14.475Z,37.60
2019-05-06T09:38:52.511Z,38.00
2019-05-06T09:40:27.557Z,38.70
2019-05-06T09:42:03.083Z,39.20
2019-05-06T09:43:38.604Z,39.20
2019-05-06T09:45:14.267Z,39.10
2019-05-06T09:46:49.806Z,38.20
2019-05-06T09:48:43.026Z,37.00
2019-05-06T09:50:32.451Z,36.30
2019-05-06T09:52:07.973Z,35.80
2019-05-06T09:54:03.957Z,36.00
2019-05-06T09:55:56.057Z,36.00
2019-05-06T09:57:49.249Z,35.80
2019-05-06T09:59:24.844Z,35.50
2019-05-06T10:01:02.633Z,35.40
2019-05-06T10:02:39.354Z,35.30
2019-05-06T10:04:14.925Z,34.90
2019-05-06T10:07:25.551Z,34.40
2019-05-06T10:09:04.843Z,35.40
2019-05-06T10:10:53.706Z,35.60
2019-05-06T10:12:17.470Z,35.50
2019-05-06T10:13:53.015Z,35.90
2019-05-06T10:15:29.510Z,36.40
2019-05-06T10:17:05.084Z,36.60
2019-05-06T10:18:40.849Z,36.80
2019-05-06T10:20:16.509Z,36.90
2019-05-06T10:21:53.063Z,37.30
2019-05-06T10:23:29.761Z,37.50
2019-05-06T10:25:06.226Z,37.70
2019-05-06T10:26:45.819Z,37.20
2019-05-06T10:28:39.287Z,37.20
2019-05-06T10:30:16.515Z,37.50
2019-05-06T10:31:56.670Z,37.80
2019-05-06T10:33:33.474Z,37.70
2019-05-06T10:35:09.482Z,37.90
2019-05-06T10:37:12.543Z,38.00
2019-05-06T10:38:52.876Z,38.10
2019-05-06T10:40:33.272Z,37.90
2019-05-06T10:42:13.647Z,37.70
2019-05-06T10:44:03.110Z,37.50
2019-05-06T10:45:38.719Z,37.10
2019-05-06T10:47:14.325Z,36.80
2019-05-06T10:48:50.092Z,36.00
2019-05-06T10:50:26.790Z,36.20
2019-05-06T10:52:16.107Z,35.90
2019-05-06T10:53:51.653Z,35.50
2019-05-06T10:55:27.374Z,35.50
2019-05-06T10:57:07.280Z,35.30
2019-05-06T10:58:44.044Z,35.10
2019-05-06T11:00:23.075Z,36.00
2019-05-06T11:02:05.071Z,36.10
2019-05-06T11:03:37.645Z,35.80
2019-05-06T11:05:13.838Z,35.40
2019-05-06T11:06:52.409Z,35.20
2019-05-06T11:08:27.073Z,35.00
2019-05-06T11:10:02.978Z,34.90
2019-05-06T11:11:39.017Z,34.90
2019-05-06T11:13:14.983Z,34.50
2019-05-06T11:14:55.288Z,33.80
2019-05-06T11:16:27.739Z,34.20
2019-05-06T11:18:04.723Z,33.50
2019-05-06T11:19:42.640Z,33.90
2019-05-06T11:21:17.716Z,34.40
2019-05-06T11:22:53.253Z,34.60
2019-05-06T11:24:28.757Z,34.90
2019-05-06T11:26:04.520Z,35.10
2019-05-06T11:27:44.309Z,34.90
2019-05-06T11:29:19.143Z,34.60
2019-05-06T11:30:57.165Z,34.00
2019-05-06T11:32:37.234Z,33.90
2019-05-06T11:34:22.228Z,33.80
2019-05-06T11:35:59.473Z,33.90
2019-05-06T11:37:49.036Z,34.00
2019-05-06T11:39:17.006Z,34.30
2019-05-06T11:40:53.195Z,34.30
2019-05-06T11:42:32.479Z,34.10
2019-05-06T11:44:09.391Z,34.30
2019-05-06T11:45:45.047Z,34.80
2019-05-06T11:47:23.067Z,34.90
2019-05-06T11:48:58.850Z,34.70
2019-05-06T11:50:34.361Z,34.70
2019-05-06T11:52:09.909Z,34.80
2019-05-06T11:53:45.481Z,35.10
2019-05-06T11:55:29.946Z,34.70
2019-05-06T11:56:58.716Z,33.90
2019-05-06T11:58:44.847Z,34.70
2019-05-06T12:00:23.914Z,35.20
2019-05-06T12:02:02.610Z,35.50
2019-05-06T12:03:39.544Z,35.00
2019-05-06T12:05:15.194Z,35.10
2019-05-06T12:06:52.594Z,35.30
2019-05-06T12:08:27.962Z,34.90
2019-05-06T12:10:04.406Z,34.30
2019-05-06T12:11:40.009Z,34.20
2019-05-06T12:13:15.965Z,34.50
2019-05-06T12:14:52.707Z,34.30
2019-05-06T12:16:28.586Z,33.80
2019-05-06T12:18:04.918Z,33.40
2019-05-06T12:19:40.515Z,32.50
2019-05-06T12:21:19.277Z,31.40
2019-05-06T12:22:53.987Z,31.10
2019-05-06T12:24:29.802Z,31.30
2019-05-06T12:26:05.333Z,30.60
2019-05-06T12:27:46.820Z,30.80
2019-05-06T12:29:22.596Z,31.30
2019-05-06T12:30:58.116Z,31.20
2019-05-06T12:32:35.267Z,31.30
2019-05-06T12:34:12.410Z,31.40
2019-05-06T12:35:48.123Z,32.00
2019-05-06T12:37:25.281Z,32.50
2019-05-06T12:39:18.110Z,33.20
2019-05-06T12:40:53.096Z,33.40
2019-05-06T12:42:32.978Z,33.70
2019-05-06T12:44:07.889Z,33.70
2019-05-06T12:45:45.055Z,33.60
2019-05-06T12:47:28.314Z,33.60
2019-05-06T12:49:04.089Z,33.90
2019-05-06T12:50:39.614Z,33.90
2019-05-06T12:52:15.141Z,33.90
2019-05-06T12:53:52.709Z,34.00
2019-05-06T12:55:28.047Z,34.00
2019-05-06T12:57:03.640Z,34.30
2019-05-06T12:58:39.214Z,34.20
2019-05-06T13:00:15.596Z,34.30
2019-05-06T13:01:53.825Z,34.30
2019-05-06T13:03:31.630Z,34.20
2019-05-06T13:05:07.533Z,34.10
2019-05-06T13:06:46.173Z,34.50
2019-05-06T13:08:22.576Z,34.80
2019-05-06T13:09:57.502Z,34.30
2019-05-06T13:11:33.032Z,34.90
2019-05-06T13:13:08.738Z,35.20
2019-05-06T13:14:44.252Z,35.40
2019-05-06T13:16:19.765Z,35.50
2019-05-06T13:17:57.675Z,35.80
2019-05-06T13:19:33.212Z,36.50
2019-05-06T13:21:12.723Z,35.80
2019-05-06T13:22:49.544Z,35.70
2019-05-06T13:24:26.722Z,35.80
2019-05-06T13:26:02.486Z,36.00
2019-05-06T13:27:42.877Z,34.90
2019-05-06T13:29:19.242Z,35.50
2019-05-06T13:30:55.732Z,34.70
2019-05-06T13:32:32.885Z,34.30
2019-05-06T13:34:10.222Z,33.90
2019-05-06T13:35:45.833Z,33.50
2019-05-06T13:37:22.843Z,33.60
2019-05-06T13:39:13.490Z,33.90
2019-05-06T13:40:51.282Z,34.20
2019-05-06T13:42:16.207Z,34.40
2019-05-06T13:44:05.706Z,34.40
2019-05-06T13:45:43.136Z,34.20
2019-05-06T13:47:36.924Z,34.00
2019-05-06T13:49:29.358Z,33.60
2019-05-06T13:51:06.522Z,33.60
2019-05-06T13:52:44.188Z,33.10
2019-05-06T13:54:22.160Z,33.00
2019-05-06T13:55:56.956Z,32.90
2019-05-06T13:57:32.498Z,32.60
2019-05-06T13:59:08.013Z,33.00
2019-05-06T14:00:43.905Z,32.30
2019-05-06T14:02:21.085Z,32.70
2019-05-06T14:03:56.622Z,32.70
2019-05-06T14:05:32.997Z,32.80
2019-05-06T14:07:08.689Z,32.80
2019-05-06T14:08:44.508Z,32.60
2019-05-06T14:10:22.058Z,32.30
2019-05-06T14:11:57.262Z,32.30
2019-05-06T14:13:32.907Z,32.40
2019-05-06T14:15:08.770Z,32.20
2019-05-06T14:16:44.292Z,32.50
2019-05-06T14:18:19.803Z,32.70
2019-05-06T14:19:55.341Z,32.70
2019-05-06T14:21:32.433Z,32.20
2019-05-06T14:23:10.004Z,32.80
2019-05-06T14:24:47.183Z,32.60
2019-05-06T14:26:34.066Z,32.80
2019-05-06T14:28:12.372Z,33.00
2019-05-06T14:31:26.487Z,32.70
2019-05-06T14:33:03.317Z,32.90
2019-05-06T14:34:39.041Z,32.80
2019-05-06T14:36:14.567Z,32.90
2019-05-06T14:37:50.088Z,33.00
2019-05-06T14:39:47.355Z,33.20
2019-05-06T14:41:07.825Z,33.00
2019-05-06T14:42:42.354Z,33.50
2019-05-06T14:44:18.007Z,33.40
2019-05-06T14:45:53.524Z,33.70
2019-05-06T14:47:32.725Z,34.10
2019-05-06T14:49:07.907Z,34.40
2019-05-06T14:50:48.448Z,33.90
2019-05-06T14:52:22.617Z,34.50
2019-05-06T14:53:58.706Z,34.30
2019-05-06T14:55:35.834Z,34.20
2019-05-06T14:57:14.607Z,33.80
2019-05-06T14:59:06.082Z,34.10
2019-05-06T15:00:42.545Z,33.70
2019-05-06T15:02:25.351Z,33.70
2019-05-06T15:03:57.625Z,33.30
2019-05-06T15:05:36.086Z,33.80
2019-05-06T15:07:17.075Z,33.90
2019-05-06T15:08:57.899Z,33.80
2019-05-06T15:10:53.723Z,33.80
2019-05-06T15:12:33.113Z,33.80
2019-05-06T15:14:08.250Z,34.10
2019-05-06T15:15:43.788Z,34.20
2019-05-06T15:17:19.312Z,34.30
2019-05-06T15:18:54.835Z,34.30
2019-05-06T15:20:30.364Z,34.30
2019-05-06T15:22:06.122Z,33.90
2019-05-06T15:23:42.441Z,33.90
2019-05-06T15:25:18.156Z,34.00
2019-05-06T15:26:54.929Z,34.30
2019-05-06T15:28:30.461Z,34.50
2019-05-06T15:30:12.285Z,34.40
2019-05-06T15:31:48.719Z,34.50
2019-05-06T15:33:25.884Z,34.70
2019-05-06T15:35:16.147Z,34.60
2019-05-06T15:36:57.574Z,34.80
2019-05-06T15:38:33.193Z,34.80
2019-05-06T15:40:09.623Z,34.90
2019-05-06T15:41:45.170Z,34.90
2019-05-06T15:43:22.041Z,34.90
2019-05-06T15:44:57.589Z,34.90
2019-05-06T15:46:34.126Z,35.60
2019-05-06T15:48:09.679Z,35.10
2019-05-06T15:49:45.382Z,35.20
2019-05-06T15:51:22.554Z,35.20
2019-05-06T15:52:58.073Z,35.30
2019-05-06T15:54:33.597Z,35.30
2019-05-06T15:56:09.219Z,35.40
2019-05-06T15:57:44.872Z,35.40
2019-05-06T15:59:22.773Z,35.40
2019-05-06T16:00:57.598Z,35.30
2019-05-06T16:02:34.299Z,35.30
2019-05-06T16:04:12.221Z,35.50
2019-05-06T16:05:47.812Z,35.50
2019-05-06T16:07:26.123Z,35.40
2019-05-06T16:09:03.636Z,35.30
2019-05-06T16:10:52.013Z,35.20
2019-05-06T16:12:17.868Z,35.20
2019-05-06T16:13:53.529Z,35.40
2019-05-06T16:15:29.092Z,35.40
2019-05-06T16:17:04.817Z,35.40
2019-05-06T16:18:42.291Z,35.50
2019-05-06T16:20:18.047Z,35.50
2019-05-06T16:21:53.632Z,35.50
2019-05-06T16:23:33.861Z,35.40
2019-05-06T16:25:15.033Z,35.20
2019-05-06T16:26:52.753Z,35.20
2019-05-06T16:28:28.078Z,35.20
2019-05-06T16:30:04.942Z,35.40
2019-05-06T16:31:42.247Z,34.70
2019-05-06T16:33:19.086Z,35.30
2019-05-06T16:34:54.704Z,35.10
2019-05-06T16:36:32.429Z,35.00
2019-05-06T16:38:07.556Z,34.90
2019-05-06T16:39:43.081Z,35.10
2019-05-06T16:41:19.577Z,35.20
2019-05-06T16:42:55.138Z,35.20
2019-05-06T16:44:31.167Z,35.30
2019-05-06T16:46:06.770Z,35.50
2019-05-06T16:47:44.699Z,34.90
2019-05-06T16:49:19.749Z,35.40
2019-05-06T16:50:55.274Z,35.50
2019-05-06T16:52:33.196Z,35.40
2019-05-06T16:54:08.053Z,35.30
2019-05-06T16:56:02.263Z,35.50
2019-05-06T16:57:37.903Z,35.40
2019-05-06T16:59:13.404Z,35.30
2019-05-06T17:00:48.932Z,35.40
2019-05-06T17:02:26.699Z,35.50
2019-05-06T17:04:14.645Z,35.70
2019-05-06T17:06:07.724Z,35.80
2019-05-06T17:07:45.131Z,35.70
2019-05-06T17:09:24.438Z,35.80
2019-05-06T17:10:57.714Z,35.70
2019-05-06T17:12:35.391Z,35.80
2019-05-06T17:14:12.265Z,35.90
2019-05-06T17:15:49.918Z,35.90
2019-05-06T17:17:38.900Z,36.10
2019-05-06T17:19:03.402Z,35.80
2019-05-06T17:20:39.001Z,36.30
2019-05-06T17:22:14.521Z,36.40
2019-05-06T17:23:52.083Z,36.60
2019-05-06T17:25:27.336Z,36.00
2019-05-06T17:27:02.911Z,36.50
2019-05-06T17:28:43.363Z,36.50
2019-05-06T17:30:33.269Z,36.70
2019-05-06T17:32:13.386Z,36.80
2019-05-06T17:35:32.793Z,36.00
2019-05-06T17:37:12.361Z,36.50
2019-05-06T17:38:52.559Z,35.90
2019-05-06T17:40:28.103Z,36.50
2019-05-06T17:42:03.974Z,36.50
2019-05-06T17:43:41.068Z,36.50
2019-05-06T17:45:36.684Z,36.30
2019-05-06T17:47:22.934Z,36.80
2019-05-06T17:49:02.240Z,37.00
2019-05-06T17:50:37.354Z,37.10
2019-05-06T17:52:14.522Z,37.10
2019-05-06T17:53:54.161Z,37.10
2019-05-06T17:55:29.683Z,37.30
2019-05-06T17:57:06.428Z,37.30
2019-05-06T17:58:42.402Z,37.50
2019-05-06T18:00:19.037Z,37.40
2019-05-06T18:01:56.267Z,37.50
2019-05-06T18:03:32.592Z,37.70
2019-05-06T18:05:08.433Z,37.70
2019-05-06T18:06:44.013Z,37.80
2019-05-06T18:08:19.777Z,37.80
2019-05-06T18:09:55.318Z,37.90
2019-05-06T18:11:33.259Z,38.00
2019-05-06T18:13:08.024Z,38.20
2019-05-06T18:14:43.758Z,38.00
2019-05-06T18:16:19.496Z,37.90
2019-05-06T18:17:55.411Z,38.60
2019-05-06T18:19:33.215Z,38.80
2019-05-06T18:21:08.205Z,38.70
2019-05-06T18:22:43.748Z,38.70
2019-05-06T18:24:19.276Z,38.90
2019-05-06T18:25:54.798Z,39.00
2019-05-06T18:27:32.562Z,39.10
2019-05-06T18:29:07.557Z,39.10
2019-05-06T18:30:44.703Z,39.10
2019-05-06T18:32:20.483Z,39.20
2019-05-06T18:33:56.063Z,38.90
2019-05-06T18:35:32.126Z,39.50
2019-05-06T18:38:42.995Z,39.10
2019-05-06T18:40:18.522Z,39.60
2019-05-06T18:41:54.059Z,39.90
2019-05-06T18:43:29.578Z,39.90
2019-05-06T18:45:06.146Z,40.00
2019-05-06T18:46:42.142Z,40.10
2019-05-06T18:48:17.767Z,40.30
2019-05-06T18:49:53.306Z,40.60
2019-05-06T18:51:28.845Z,40.80
2019-05-06T18:53:04.478Z,40.70
2019-05-06T18:54:40.016Z,40.60
2019-05-06T18:56:15.530Z,40.70
2019-05-06T18:57:52.788Z,40.70
2019-05-06T18:59:28.437Z,41.20
2019-05-06T19:01:04.348Z,41.40
2019-05-06T19:02:42.166Z,41.30
2019-05-06T19:04:27.165Z,41.90
2019-05-06T19:06:03.211Z,41.10
2019-05-06T19:07:38.799Z,41.70
2019-05-06T19:09:24.681Z,42.20
2019-05-06T19:11:02.331Z,42.50
2019-05-06T19:12:41.263Z,42.50
2019-05-06T19:14:15.214Z,42.70
2019-05-06T19:15:52.642Z,42.80
2019-05-06T19:17:27.969Z,43.00
2019-05-06T19:19:05.824Z,43.20
2019-05-06T19:20:43.295Z,43.30
2019-05-06T19:22:18.796Z,43.50
2019-05-06T19:23:54.931Z,43.50
2019-05-06T19:25:33.955Z,43.30
2019-05-06T19:27:08.127Z,43.50
2019-05-06T19:28:43.657Z,43.80
2019-05-06T19:30:22.322Z,43.80
2019-05-06T19:31:57.647Z,44.00
2019-05-06T19:33:34.862Z,44.00
2019-05-06T19:35:13.042Z,43.90
2019-05-06T19:36:48.021Z,44.10
2019-05-06T19:38:24.452Z,44.40
2019-05-06T19:40:00.064Z,44.70
2019-05-06T19:41:35.603Z,45.00
2019-05-06T19:43:12.353Z,45.20
2019-05-06T19:44:47.945Z,45.10
2019-05-06T19:46:23.459Z,45.20
2019-05-06T19:47:58.992Z,45.40
2019-05-06T19:49:36.583Z,45.70
2019-05-06T19:51:11.788Z,45.80
2019-05-06T19:52:47.299Z,45.90
2019-05-06T19:54:22.814Z,46.10
2019-05-06T19:55:58.341Z,45.90
2019-05-06T19:57:33.851Z,46.60
2019-05-06T19:59:10.357Z,46.70
2019-05-06T20:00:47.181Z,46.70
2019-05-06T20:02:25.680Z,46.80
2019-05-06T20:04:02.303Z,46.60
2019-05-06T20:05:41.542Z,46.50
2019-05-06T20:07:26.916Z,46.60
2019-05-06T20:09:19.235Z,46.80
2019-05-06T20:11:04.825Z,46.90
2019-05-06T20:12:58.423Z,46.90
2019-05-06T20:14:22.156Z,47.40
2019-05-06T20:15:57.689Z,47.50
2019-05-06T20:17:33.204Z,47.80
2019-05-06T20:19:09.022Z,47.90
2019-05-06T20:20:44.547Z,48.00
2019-05-06T20:22:20.083Z,48.10
2019-05-06T20:23:55.719Z,48.30
2019-05-06T20:25:31.256Z,48.40
2019-05-06T20:27:06.777Z,48.50
2019-05-06T20:28:42.940Z,48.40
2019-05-06T20:30:19.044Z,48.40
2019-05-06T20:31:54.559Z,48.60
2019-05-06T20:33:32.515Z,48.50
2019-05-06T20:35:09.185Z,48.70
2019-05-06T20:36:44.956Z,48.80
2019-05-06T20:38:23.270Z,49.00
2019-05-06T20:39:59.189Z,49.10
2019-05-06T20:41:34.993Z,49.00
2019-05-06T20:43:17.472Z,49.20
2019-05-06T20:44:48.037Z,49.50
2019-05-06T20:46:24.062Z,49.60
2019-05-06T20:48:03.248Z,49.70
2019-05-06T20:49:39.054Z,49.80
2019-05-06T20:51:14.573Z,49.90
2019-05-06T20:52:52.112Z,49.80
2019-05-06T20:54:27.988Z,49.90
2019-05-06T20:56:03.556Z,50.00
2019-05-06T20:57:39.194Z,50.10
2019-05-06T20:59:14.720Z,50.40
2019-05-06T21:00:52.164Z,50.40
2019-05-06T21:02:27.909Z,50.40
2019-05-06T21:04:03.430Z,50.30
2019-05-06T21:05:39.274Z,50.40
2019-05-06T21:07:16.390Z,50.40